MMMA/MAM METAR and TAF weather

Enter ICAO airport designator
Station Type Date Time Source
MMMA METAR 2022/01/23 01:42 UTC NOAA

MMMA 230142Z 29007KT 2SM BR OVC003 12/12 A3029 RMK 8/7//


Station Type Date Time Source
MMMA Decoded METAR 2022/01/23 01:42 UTC NOAA

Matamoros International , Mexico (MMMA) 25-46N 097-32W
Jan 22, 2022 - 08:42 PM EST / 2022.01.23 0142 UTC
Wind: from the WNW (290 degrees) at 8 MPH (7 KT):0
Visibility: 2 mile(s):0
Sky conditions: overcast
Weather: mist
Temperature: 53 F (12 C)
Dew Point: 53 F (12 C)
Relative Humidity: 100%
Pressure (altimeter): 30.29 in. Hg (1025 hPa)
ob: MMMA 230142Z 29007KT 2SM BR OVC003 12/12 A3029 RMK 8/7//
cycle: 1

Station Type Date Time Source
MMMA TAF 2022/01/23 06:32 UTC NOAA

TAF MMMA 230524Z 2306/2406 30005KT 2SM BR OVC003
TEMPO 2312/2316 1SM BR DZ VV001
FM231700 33010KT 3SM BR BKN005 OVC010
FM231900 03010KT 5SM HZ BKN010 OVC030
FM240300 06005KT 3SM HZ BKN015

Example: see airport list